sensor_id;sensor_type;location;lat;lon;timestamp;temperature;humidity
70708;SHT30;58277;47.316;18.908;2022-09-13T00:01:59;13.22;72.62
70708;SHT30;58277;47.316;18.908;2022-09-13T00:04:21;13.30;71.98
70708;SHT30;58277;47.316;18.908;2022-09-13T00:06:44;13.20;72.10
70708;SHT30;58277;47.316;18.908;2022-09-13T00:09:06;13.13;72.15
70708;SHT30;58277;47.316;18.908;2022-09-13T00:11:29;13.00;72.71
70708;SHT30;58277;47.316;18.908;2022-09-13T00:13:54;13.06;72.47
70708;SHT30;58277;47.316;18.908;2022-09-13T00:16:18;12.99;72.68
70708;SHT30;58277;47.316;18.908;2022-09-13T00:18:42;13.03;72.62
70708;SHT30;58277;47.316;18.908;2022-09-13T00:21:12;13.02;72.32
70708;SHT30;58277;47.316;18.908;2022-09-13T00:23:36;12.99;72.13
70708;SHT30;58277;47.316;18.908;2022-09-13T00:26:23;12.92;72.60
70708;SHT30;58277;47.316;18.908;2022-09-13T00:28:54;12.82;72.92
70708;SHT30;58277;47.316;18.908;2022-09-13T00:31:17;12.81;72.80
70708;SHT30;58277;47.316;18.908;2022-09-13T00:33:40;12.81;73.04
70708;SHT30;58277;47.316;18.908;2022-09-13T00:36:08;12.81;73.23
70708;SHT30;58277;47.316;18.908;2022-09-13T00:38:31;12.79;72.86
70708;SHT30;58277;47.316;18.908;2022-09-13T00:40:54;12.77;73.45
70708;SHT30;58277;47.316;18.908;2022-09-13T00:43:19;12.78;72.78
70708;SHT30;58277;47.316;18.908;2022-09-13T00:45:41;12.71;72.74
70708;SHT30;58277;47.316;18.908;2022-09-13T00:48:06;12.67;72.92
70708;SHT30;58277;47.316;18.908;2022-09-13T00:50:36;12.65;73.12
70708;SHT30;58277;47.316;18.908;2022-09-13T00:53:05;12.77;72.59
70708;SHT30;58277;47.316;18.908;2022-09-13T00:58:01;12.67;73.37
70708;SHT30;58277;47.316;18.908;2022-09-13T01:00:26;12.61;73.41
70708;SHT30;58277;47.316;18.908;2022-09-13T01:02:52;12.57;73.88
70708;SHT30;58277;47.316;18.908;2022-09-13T01:05:21;12.60;73.44
70708;SHT30;58277;47.316;18.908;2022-09-13T01:07:44;12.58;73.34
70708;SHT30;58277;47.316;18.908;2022-09-13T01:10:08;12.54;73.57
70708;SHT30;58277;47.316;18.908;2022-09-13T01:12:54;12.60;73.57
70708;SHT30;58277;47.316;18.908;2022-09-13T01:15:18;12.57;73.88
70708;SHT30;58277;47.316;18.908;2022-09-13T01:17:41;12.54;74.30
70708;SHT30;58277;47.316;18.908;2022-09-13T01:20:06;12.51;73.33
70708;SHT30;58277;47.316;18.908;2022-09-13T01:22:43;12.45;73.28
70708;SHT30;58277;47.316;18.908;2022-09-13T01:31:43;12.41;74.32
70708;SHT30;58277;47.316;18.908;2022-09-13T01:34:17;12.34;74.08
70708;SHT30;58277;47.316;18.908;2022-09-13T01:47:52;12.12;75.12
70708;SHT30;58277;47.316;18.908;2022-09-13T01:50:21;12.10;75.17
70708;SHT30;58277;47.316;18.908;2022-09-13T01:52:49;11.99;75.23
70708;SHT30;58277;47.316;18.908;2022-09-13T02:00:23;11.97;75.76
70708;SHT30;58277;47.316;18.908;2022-09-13T02:05:45;11.82;76.27
70708;SHT30;58277;47.316;18.908;2022-09-13T02:08:13;11.81;76.42
70708;SHT30;58277;47.316;18.908;2022-09-13T02:10:41;11.82;76.55
70708;SHT30;58277;47.316;18.908;2022-09-13T02:13:09;11.83;76.19
70708;SHT30;58277;47.316;18.908;2022-09-13T02:15:54;11.79;76.71
70708;SHT30;58277;47.316;18.908;2022-09-13T02:18:38;11.79;76.51
70708;SHT30;58277;47.316;18.908;2022-09-13T02:21:19;11.76;76.58
70708;SHT30;58277;47.316;18.908;2022-09-13T02:23:48;11.75;76.76
70708;SHT30;58277;47.316;18.908;2022-09-13T02:26:12;11.64;76.92
70708;SHT30;58277;47.316;18.908;2022-09-13T02:28:40;11.62;76.73
70708;SHT30;58277;47.316;18.908;2022-09-13T02:31:07;11.61;76.84
70708;SHT30;58277;47.316;18.908;2022-09-13T02:33:35;11.59;76.78
70708;SHT30;58277;47.316;18.908;2022-09-13T02:36:12;11.42;77.30
70708;SHT30;58277;47.316;18.908;2022-09-13T02:38:47;11.37;77.58
70708;SHT30;58277;47.316;18.908;2022-09-13T02:41:24;11.44;77.45
70708;SHT30;58277;47.316;18.908;2022-09-13T02:43:53;11.50;78.01
70708;SHT30;58277;47.316;18.908;2022-09-13T02:49:10;11.45;77.52
70708;SHT30;58277;47.316;18.908;2022-09-13T02:56:52;11.10;79.01
70708;SHT30;58277;47.316;18.908;2022-09-13T02:59:20;11.03;79.07
70708;SHT30;58277;47.316;18.908;2022-09-13T03:01:47;10.97;79.19
70708;SHT30;58277;47.316;18.908;2022-09-13T03:04:10;11.00;79.08
70708;SHT30;58277;47.316;18.908;2022-09-13T03:06:33;11.11;78.71
70708;SHT30;58277;47.316;18.908;2022-09-13T03:08:59;11.28;77.89
70708;SHT30;58277;47.316;18.908;2022-09-13T03:11:39;11.31;78.69
70708;SHT30;58277;47.316;18.908;2022-09-13T03:19:42;11.28;78.44
70708;SHT30;58277;47.316;18.908;2022-09-13T03:30:07;10.62;80.81
70708;SHT30;58277;47.316;18.908;2022-09-13T03:32:39;10.53;80.98
70708;SHT30;58277;47.316;18.908;2022-09-13T03:43:03;10.65;80.23
70708;SHT30;58277;47.316;18.908;2022-09-13T03:45:34;10.65;81.12
70708;SHT30;58277;47.316;18.908;2022-09-13T03:47:57;10.61;80.88
70708;SHT30;58277;47.316;18.908;2022-09-13T03:50:22;10.61;80.74
70708;SHT30;58277;47.316;18.908;2022-09-13T03:53:05;10.73;80.60
70708;SHT30;58277;47.316;18.908;2022-09-13T03:55:30;10.84;80.26
70708;SHT30;58277;47.316;18.908;2022-09-13T03:57:54;10.89;79.80
70708;SHT30;58277;47.316;18.908;2022-09-13T04:00:17;10.80;80.00
70708;SHT30;58277;47.316;18.908;2022-09-13T04:02:40;10.93;79.85
70708;SHT30;58277;47.316;18.908;2022-09-13T04:05:02;10.99;80.21
70708;SHT30;58277;47.316;18.908;2022-09-13T04:07:25;11.04;79.03
70708;SHT30;58277;47.316;18.908;2022-09-13T04:09:48;11.13;78.40
70708;SHT30;58277;47.316;18.908;2022-09-13T04:12:13;11.13;78.15
70708;SHT30;58277;47.316;18.908;2022-09-13T04:14:36;11.21;78.63
70708;SHT30;58277;47.316;18.908;2022-09-13T04:16:59;11.06;79.24
70708;SHT30;58277;47.316;18.908;2022-09-13T04:19:22;10.83;79.87
70708;SHT30;58277;47.316;18.908;2022-09-13T04:21:52;10.70;80.05
70708;SHT30;58277;47.316;18.908;2022-09-13T04:24:15;10.49;80.14
70708;SHT30;58277;47.316;18.908;2022-09-13T04:26:38;10.28;81.10
70708;SHT30;58277;47.316;18.908;2022-09-13T04:29:01;10.24;81.53
70708;SHT30;58277;47.316;18.908;2022-09-13T04:31:23;10.22;81.71
70708;SHT30;58277;47.316;18.908;2022-09-13T04:33:48;10.45;81.10
70708;SHT30;58277;47.316;18.908;2022-09-13T04:36:11;10.61;80.68
70708;SHT30;58277;47.316;18.908;2022-09-13T04:38:34;10.63;80.67
70708;SHT30;58277;47.316;18.908;2022-09-13T04:40:58;10.79;80.94
70708;SHT30;58277;47.316;18.908;2022-09-13T04:43:21;11.01;79.27
70708;SHT30;58277;47.316;18.908;2022-09-13T04:45:44;11.06;78.92
70708;SHT30;58277;47.316;18.908;2022-09-13T04:48:08;10.92;79.04
70708;SHT30;58277;47.316;18.908;2022-09-13T04:50:30;10.84;78.90
70708;SHT30;58277;47.316;18.908;2022-09-13T04:52:54;11.06;78.67
70708;SHT30;58277;47.316;18.908;2022-09-13T04:55:17;11.41;77.58
70708;SHT30;58277;47.316;18.908;2022-09-13T04:57:40;11.64;77.22
70708;SHT30;58277;47.316;18.908;2022-09-13T05:00:03;11.64;77.56
70708;SHT30;58277;47.316;18.908;2022-09-13T05:02:26;11.54;77.49
70708;SHT30;58277;47.316;18.908;2022-09-13T05:04:49;11.58;77.63
70708;SHT30;58277;47.316;18.908;2022-09-13T05:07:12;11.75;77.30
70708;SHT30;58277;47.316;18.908;2022-09-13T05:09:34;11.90;76.04
70708;SHT30;58277;47.316;18.908;2022-09-13T05:11:57;12.23;74.68
70708;SHT30;58277;47.316;18.908;2022-09-13T05:14:20;12.30;74.74
70708;SHT30;58277;47.316;18.908;2022-09-13T05:16:42;12.57;73.55
70708;SHT30;58277;47.316;18.908;2022-09-13T05:19:05;12.85;73.08
70708;SHT30;58277;47.316;18.908;2022-09-13T05:21:29;12.98;72.14
70708;SHT30;58277;47.316;18.908;2022-09-13T05:23:53;13.22;71.32
70708;SHT30;58277;47.316;18.908;2022-09-13T05:26:16;13.23;70.72
70708;SHT30;58277;47.316;18.908;2022-09-13T05:28:39;13.27;70.44
70708;SHT30;58277;47.316;18.908;2022-09-13T05:31:05;13.39;70.22
70708;SHT30;58277;47.316;18.908;2022-09-13T05:33:30;13.50;70.21
70708;SHT30;58277;47.316;18.908;2022-09-13T05:35:53;13.65;70.10
70708;SHT30;58277;47.316;18.908;2022-09-13T05:38:17;13.65;70.69
70708;SHT30;58277;47.316;18.908;2022-09-13T05:40:39;13.70;69.98
70708;SHT30;58277;47.316;18.908;2022-09-13T05:43:03;13.74;70.08
70708;SHT30;58277;47.316;18.908;2022-09-13T05:45:25;14.08;69.51
70708;SHT30;58277;47.316;18.908;2022-09-13T05:47:50;14.36;68.49
70708;SHT30;58277;47.316;18.908;2022-09-13T05:50:13;14.41;68.16
70708;SHT30;58277;47.316;18.908;2022-09-13T05:52:56;14.51;68.12
70708;SHT30;58277;47.316;18.908;2022-09-13T05:55:19;14.66;67.77
70708;SHT30;58277;47.316;18.908;2022-09-13T05:57:42;14.76;68.00
70708;SHT30;58277;47.316;18.908;2022-09-13T06:00:05;14.92;67.59
70708;SHT30;58277;47.316;18.908;2022-09-13T06:02:33;14.80;68.20
70708;SHT30;58277;47.316;18.908;2022-09-13T06:04:56;14.83;68.55
70708;SHT30;58277;47.316;18.908;2022-09-13T06:07:19;14.67;67.96
70708;SHT30;58277;47.316;18.908;2022-09-13T06:09:41;14.57;68.02
70708;SHT30;58277;47.316;18.908;2022-09-13T06:12:04;14.61;68.16
70708;SHT30;58277;47.316;18.908;2022-09-13T06:14:26;14.63;67.85
70708;SHT30;58277;47.316;18.908;2022-09-13T06:16:49;14.68;67.17
70708;SHT30;58277;47.316;18.908;2022-09-13T06:19:11;14.91;66.72
70708;SHT30;58277;47.316;18.908;2022-09-13T06:21:34;15.16;66.40
70708;SHT30;58277;47.316;18.908;2022-09-13T06:23:57;15.18;67.32
70708;SHT30;58277;47.316;18.908;2022-09-13T06:26:24;15.31;66.68
70708;SHT30;58277;47.316;18.908;2022-09-13T06:28:52;15.32;64.81
70708;SHT30;58277;47.316;18.908;2022-09-13T06:31:16;15.49;65.35
70708;SHT30;58277;47.316;18.908;2022-09-13T06:33:41;15.25;65.53
70708;SHT30;58277;47.316;18.908;2022-09-13T06:36:06;15.38;65.81
70708;SHT30;58277;47.316;18.908;2022-09-13T06:38:30;15.29;66.14
70708;SHT30;58277;47.316;18.908;2022-09-13T06:43:22;15.40;65.42
70708;SHT30;58277;47.316;18.908;2022-09-13T06:45:45;15.56;66.22
70708;SHT30;58277;47.316;18.908;2022-09-13T06:48:08;15.73;65.30
70708;SHT30;58277;47.316;18.908;2022-09-13T06:50:31;16.04;65.55
70708;SHT30;58277;47.316;18.908;2022-09-13T06:52:56;16.28;63.57
70708;SHT30;58277;47.316;18.908;2022-09-13T06:55:19;16.33;64.23
70708;SHT30;58277;47.316;18.908;2022-09-13T06:57:43;17.25;62.47
70708;SHT30;58277;47.316;18.908;2022-09-13T07:00:06;17.25;61.47
70708;SHT30;58277;47.316;18.908;2022-09-13T07:02:29;17.17;62.48
70708;SHT30;58277;47.316;18.908;2022-09-13T07:04:52;17.06;62.82
70708;SHT30;58277;47.316;18.908;2022-09-13T07:07:14;16.73;62.77
70708;SHT30;58277;47.316;18.908;2022-09-13T07:09:37;16.66;63.25
70708;SHT30;58277;47.316;18.908;2022-09-13T07:12:00;16.79;62.16
70708;SHT30;58277;47.316;18.908;2022-09-13T07:14:25;16.88;62.54
70708;SHT30;58277;47.316;18.908;2022-09-13T07:16:48;16.91;62.85
70708;SHT30;58277;47.316;18.908;2022-09-13T07:19:24;16.96;63.20
70708;SHT30;58277;47.316;18.908;2022-09-13T07:21:50;16.96;62.34
70708;SHT30;58277;47.316;18.908;2022-09-13T07:24:13;17.10;62.47
70708;SHT30;58277;47.316;18.908;2022-09-13T07:26:37;17.21;60.72
70708;SHT30;58277;47.316;18.908;2022-09-13T07:29:02;17.15;61.06
70708;SHT30;58277;47.316;18.908;2022-09-13T07:31:28;17.28;61.56
70708;SHT30;58277;47.316;18.908;2022-09-13T07:34:02;17.20;61.54
70708;SHT30;58277;47.316;18.908;2022-09-13T07:36:27;17.34;61.34
70708;SHT30;58277;47.316;18.908;2022-09-13T07:38:50;17.58;60.77
70708;SHT30;58277;47.316;18.908;2022-09-13T07:41:16;17.76;58.99
70708;SHT30;58277;47.316;18.908;2022-09-13T07:43:39;17.75;58.97
70708;SHT30;58277;47.316;18.908;2022-09-13T07:46:04;17.80;59.12
70708;SHT30;58277;47.316;18.908;2022-09-13T07:48:29;18.14;57.49
70708;SHT30;58277;47.316;18.908;2022-09-13T07:51:02;18.28;56.28
70708;SHT30;58277;47.316;18.908;2022-09-13T07:53:26;18.27;55.10
70708;SHT30;58277;47.316;18.908;2022-09-13T07:55:49;18.41;55.11
70708;SHT30;58277;47.316;18.908;2022-09-13T07:58:11;18.64;53.53
70708;SHT30;58277;47.316;18.908;2022-09-13T08:00:35;18.72;54.65
70708;SHT30;58277;47.316;18.908;2022-09-13T08:02:57;18.68;54.28
70708;SHT30;58277;47.316;18.908;2022-09-13T08:05:20;18.62;53.69
70708;SHT30;58277;47.316;18.908;2022-09-13T08:07:43;18.54;53.11
70708;SHT30;58277;47.316;18.908;2022-09-13T08:10:06;18.85;53.86
70708;SHT30;58277;47.316;18.908;2022-09-13T08:12:29;18.85;54.35
70708;SHT30;58277;47.316;18.908;2022-09-13T08:14:52;18.96;54.19
70708;SHT30;58277;47.316;18.908;2022-09-13T08:17:15;19.04;54.42
70708;SHT30;58277;47.316;18.908;2022-09-13T08:19:37;18.99;53.47
70708;SHT30;58277;47.316;18.908;2022-09-13T08:22:00;18.84;53.95
70708;SHT30;58277;47.316;18.908;2022-09-13T08:24:23;19.03;54.66
70708;SHT30;58277;47.316;18.908;2022-09-13T08:26:46;19.19;53.67
70708;SHT30;58277;47.316;18.908;2022-09-13T08:29:10;19.19;53.07
70708;SHT30;58277;47.316;18.908;2022-09-13T08:31:34;19.30;53.79
70708;SHT30;58277;47.316;18.908;2022-09-13T08:33:58;19.35;53.60
70708;SHT30;58277;47.316;18.908;2022-09-13T08:36:23;19.19;52.84
70708;SHT30;58277;47.316;18.908;2022-09-13T08:38:48;19.31;53.24
70708;SHT30;58277;47.316;18.908;2022-09-13T08:46:43;19.72;53.11
70708;SHT30;58277;47.316;18.908;2022-09-13T08:49:14;20.16;51.27
70708;SHT30;58277;47.316;18.908;2022-09-13T08:51:52;20.09;50.97
70708;SHT30;58277;47.316;18.908;2022-09-13T08:54:16;20.26;51.43
70708;SHT30;58277;47.316;18.908;2022-09-13T09:07:47;20.94;48.15
70708;SHT30;58277;47.316;18.908;2022-09-13T09:13:02;20.90;49.29
70708;SHT30;58277;47.316;18.908;2022-09-13T09:15:39;20.53;50.10
70708;SHT30;58277;47.316;18.908;2022-09-13T09:18:13;20.60;50.73
70708;SHT30;58277;47.316;18.908;2022-09-13T09:20:48;20.81;49.30
70708;SHT30;58277;47.316;18.908;2022-09-13T09:23:20;20.87;49.45
70708;SHT30;58277;47.316;18.908;2022-09-13T09:25:43;20.83;49.41
70708;SHT30;58277;47.316;18.908;2022-09-13T09:28:15;20.92;49.07
70708;SHT30;58277;47.316;18.908;2022-09-13T09:31:08;21.13;48.63
70708;SHT30;58277;47.316;18.908;2022-09-13T09:33:50;21.30;48.13
70708;SHT30;58277;47.316;18.908;2022-09-13T09:36:38;21.25;47.77
70708;SHT30;58277;47.316;18.908;2022-09-13T09:39:06;21.26;45.92
70708;SHT30;58277;47.316;18.908;2022-09-13T09:41:33;21.35;46.70
70708;SHT30;58277;47.316;18.908;2022-09-13T09:46:39;21.35;46.61
70708;SHT30;58277;47.316;18.908;2022-09-13T09:49:18;21.21;46.68
70708;SHT30;58277;47.316;18.908;2022-09-13T09:52:04;21.13;45.60
70708;SHT30;58277;47.316;18.908;2022-09-13T09:54:51;21.19;47.00
70708;SHT30;58277;47.316;18.908;2022-09-13T09:57:18;21.01;46.95
70708;SHT30;58277;47.316;18.908;2022-09-13T09:59:42;20.88;46.03
70708;SHT30;58277;47.316;18.908;2022-09-13T10:02:15;20.70;46.45
70708;SHT30;58277;47.316;18.908;2022-09-13T10:04:38;20.73;46.67
70708;SHT30;58277;47.316;18.908;2022-09-13T10:10:20;21.22;46.86
70708;SHT30;58277;47.316;18.908;2022-09-13T10:12:48;21.64;47.02
70708;SHT30;58277;47.316;18.908;2022-09-13T10:15:15;22.00;46.14
70708;SHT30;58277;47.316;18.908;2022-09-13T10:17:38;22.02;44.73
70708;SHT30;58277;47.316;18.908;2022-09-13T10:20:19;21.84;44.61
70708;SHT30;58277;47.316;18.908;2022-09-13T10:22:43;21.61;44.90
70708;SHT30;58277;47.316;18.908;2022-09-13T10:25:23;21.59;44.43
70708;SHT30;58277;47.316;18.908;2022-09-13T10:27:54;21.33;45.07
70708;SHT30;58277;47.316;18.908;2022-09-13T10:30:38;21.60;45.52
70708;SHT30;58277;47.316;18.908;2022-09-13T10:33:03;21.91;44.23
70708;SHT30;58277;47.316;18.908;2022-09-13T10:35:28;21.95;45.23
70708;SHT30;58277;47.316;18.908;2022-09-13T10:37:51;22.12;45.59
70708;SHT30;58277;47.316;18.908;2022-09-13T10:40:31;22.07;44.60
70708;SHT30;58277;47.316;18.908;2022-09-13T10:43:03;21.66;45.74
70708;SHT30;58277;47.316;18.908;2022-09-13T10:45:30;21.64;45.30
70708;SHT30;58277;47.316;18.908;2022-09-13T10:47:54;21.71;45.51
70708;SHT30;58277;47.316;18.908;2022-09-13T10:50:25;21.91;45.76
70708;SHT30;58277;47.316;18.908;2022-09-13T10:55:53;21.91;44.67
70708;SHT30;58277;47.316;18.908;2022-09-13T10:58:18;21.97;45.03
70708;SHT30;58277;47.316;18.908;2022-09-13T11:04:25;22.80;41.43
70708;SHT30;58277;47.316;18.908;2022-09-13T11:09:16;23.29;39.53
70708;SHT30;58277;47.316;18.908;2022-09-13T11:25:43;23.59;38.29
70708;SHT30;58277;47.316;18.908;2022-09-13T11:36:33;23.70;38.85
70708;SHT30;58277;47.316;18.908;2022-09-13T11:39:22;23.77;37.81
70708;SHT30;58277;47.316;18.908;2022-09-13T11:42:12;24.17;39.08
70708;SHT30;58277;47.316;18.908;2022-09-13T11:44:59;24.24;37.84
70708;SHT30;58277;47.316;18.908;2022-09-13T11:50:31;24.47;36.19
70708;SHT30;58277;47.316;18.908;2022-09-13T11:53:09;24.31;37.26
70708;SHT30;58277;47.316;18.908;2022-09-13T11:55:46;24.24;36.87
70708;SHT30;58277;47.316;18.908;2022-09-13T11:58:30;24.16;36.66
70708;SHT30;58277;47.316;18.908;2022-09-13T12:01:01;24.55;37.80
70708;SHT30;58277;47.316;18.908;2022-09-13T12:03:33;24.67;36.83
70708;SHT30;58277;47.316;18.908;2022-09-13T12:06:04;24.69;36.56
70708;SHT30;58277;47.316;18.908;2022-09-13T12:08:41;24.83;36.29
70708;SHT30;58277;47.316;18.908;2022-09-13T12:11:24;24.47;36.42
70708;SHT30;58277;47.316;18.908;2022-09-13T12:13:51;23.73;36.93
70708;SHT30;58277;47.316;18.908;2022-09-13T12:16:21;23.15;38.50
70708;SHT30;58277;47.316;18.908;2022-09-13T12:18:48;23.42;37.41
70708;SHT30;58277;47.316;18.908;2022-09-13T12:21:15;23.79;36.79
70708;SHT30;58277;47.316;18.908;2022-09-13T12:23:54;24.00;37.81
70708;SHT30;58277;47.316;18.908;2022-09-13T12:26:24;24.07;36.28
70708;SHT30;58277;47.316;18.908;2022-09-13T12:32:08;24.23;36.67
70708;SHT30;58277;47.316;18.908;2022-09-13T13:03:20;24.16;40.58
70708;SHT30;58277;47.316;18.908;2022-09-13T13:05:47;24.16;39.30
70708;SHT30;58277;47.316;18.908;2022-09-13T13:10:41;24.13;40.39
70708;SHT30;58277;47.316;18.908;2022-09-13T13:33:46;23.70;40.94
70708;SHT30;58277;47.316;18.908;2022-09-13T13:36:21;23.62;40.92
70708;SHT30;58277;47.316;18.908;2022-09-13T13:38:47;23.69;41.63
70708;SHT30;58277;47.316;18.908;2022-09-13T13:43:55;23.76;40.82
70708;SHT30;58277;47.316;18.908;2022-09-13T13:48:43;23.69;41.35
70708;SHT30;58277;47.316;18.908;2022-09-13T13:51:21;23.62;41.38
70708;SHT30;58277;47.316;18.908;2022-09-13T13:53:52;23.68;40.57
70708;SHT30;58277;47.316;18.908;2022-09-13T13:56:27;23.86;41.38
70708;SHT30;58277;47.316;18.908;2022-09-13T13:59:10;23.82;40.67
70708;SHT30;58277;47.316;18.908;2022-09-13T14:01:38;23.77;40.57
70708;SHT30;58277;47.316;18.908;2022-09-13T14:04:36;23.76;40.34
70708;SHT30;58277;47.316;18.908;2022-09-13T14:10:25;23.87;39.89
70708;SHT30;58277;47.316;18.908;2022-09-13T14:16:20;23.80;40.84
70708;SHT30;58277;47.316;18.908;2022-09-13T14:22:13;23.80;40.60
70708;SHT30;58277;47.316;18.908;2022-09-13T14:24:38;23.68;40.62
70708;SHT30;58277;47.316;18.908;2022-09-13T14:27:01;23.62;40.97
70708;SHT30;58277;47.316;18.908;2022-09-13T14:29:30;23.66;41.10
70708;SHT30;58277;47.316;18.908;2022-09-13T14:31:54;23.66;41.54
70708;SHT30;58277;47.316;18.908;2022-09-13T14:34:26;23.72;40.87
70708;SHT30;58277;47.316;18.908;2022-09-13T14:36:58;23.70;40.50
70708;SHT30;58277;47.316;18.908;2022-09-13T14:39:21;23.63;41.38
70708;SHT30;58277;47.316;18.908;2022-09-13T14:41:43;23.61;41.81
70708;SHT30;58277;47.316;18.908;2022-09-13T14:44:35;23.66;40.95
70708;SHT30;58277;47.316;18.908;2022-09-13T14:49:41;23.58;41.37
70708;SHT30;58277;47.316;18.908;2022-09-13T14:52:35;23.58;41.92
70708;SHT30;58277;47.316;18.908;2022-09-13T14:55:11;23.54;41.93
70708;SHT30;58277;47.316;18.908;2022-09-13T14:57:38;23.48;41.09
70708;SHT30;58277;47.316;18.908;2022-09-13T15:00:17;23.39;41.87
70708;SHT30;58277;47.316;18.908;2022-09-13T15:02:45;23.39;41.76
70708;SHT30;58277;47.316;18.908;2022-09-13T15:05:12;23.39;40.83
70708;SHT30;58277;47.316;18.908;2022-09-13T15:07:37;23.47;41.58
70708;SHT30;58277;47.316;18.908;2022-09-13T15:12:28;23.24;41.83
70708;SHT30;58277;47.316;18.908;2022-09-13T15:17:54;22.87;42.88
70708;SHT30;58277;47.316;18.908;2022-09-13T15:20:17;22.87;43.34
70708;SHT30;58277;47.316;18.908;2022-09-13T15:22:41;22.80;43.32
70708;SHT30;58277;47.316;18.908;2022-09-13T15:25:04;22.83;43.12
70708;SHT30;58277;47.316;18.908;2022-09-13T15:27:46;22.72;43.26
70708;SHT30;58277;47.316;18.908;2022-09-13T15:32:49;22.82;43.21
70708;SHT30;58277;47.316;18.908;2022-09-13T15:35:17;22.86;43.46
70708;SHT30;58277;47.316;18.908;2022-09-13T15:37:43;22.91;43.73
70708;SHT30;58277;47.316;18.908;2022-09-13T15:40:24;22.91;43.11
70708;SHT30;58277;47.316;18.908;2022-09-13T15:42:49;22.82;43.59
70708;SHT30;58277;47.316;18.908;2022-09-13T15:45:12;22.83;43.60
70708;SHT30;58277;47.316;18.908;2022-09-13T15:47:36;22.80;43.42
70708;SHT30;58277;47.316;18.908;2022-09-13T15:49:58;22.79;43.75
70708;SHT30;58277;47.316;18.908;2022-09-13T15:52:21;22.77;44.23
70708;SHT30;58277;47.316;18.908;2022-09-13T15:54:47;22.70;44.12
70708;SHT30;58277;47.316;18.908;2022-09-13T15:57:28;22.67;44.87
70708;SHT30;58277;47.316;18.908;2022-09-13T15:59:52;22.69;45.22
70708;SHT30;58277;47.316;18.908;2022-09-13T16:02:22;22.57;45.13
70708;SHT30;58277;47.316;18.908;2022-09-13T16:04:47;22.67;44.76
70708;SHT30;58277;47.316;18.908;2022-09-13T16:07:09;22.56;45.10
70708;SHT30;58277;47.316;18.908;2022-09-13T16:09:32;22.62;45.14
70708;SHT30;58277;47.316;18.908;2022-09-13T16:11:55;22.59;45.36
70708;SHT30;58277;47.316;18.908;2022-09-13T16:14:18;22.42;45.71
70708;SHT30;58277;47.316;18.908;2022-09-13T16:16:42;22.41;46.09
70708;SHT30;58277;47.316;18.908;2022-09-13T16:19:13;22.35;46.55
70708;SHT30;58277;47.316;18.908;2022-09-13T16:21:37;22.31;46.74
70708;SHT30;58277;47.316;18.908;2022-09-13T16:24:00;22.22;47.01
70708;SHT30;58277;47.316;18.908;2022-09-13T16:26:27;22.19;47.26
70708;SHT30;58277;47.316;18.908;2022-09-13T16:28:51;22.11;47.66
70708;SHT30;58277;47.316;18.908;2022-09-13T16:31:16;22.08;48.48
70708;SHT30;58277;47.316;18.908;2022-09-13T16:33:39;22.07;48.46
70708;SHT30;58277;47.316;18.908;2022-09-13T16:36:01;22.00;48.63
70708;SHT30;58277;47.316;18.908;2022-09-13T16:38:24;21.93;48.84
70708;SHT30;58277;47.316;18.908;2022-09-13T16:40:47;21.88;48.82
70708;SHT30;58277;47.316;18.908;2022-09-13T16:43:10;21.81;48.85
70708;SHT30;58277;47.316;18.908;2022-09-13T16:45:37;21.76;49.06
70708;SHT30;58277;47.316;18.908;2022-09-13T16:48:06;21.61;49.27
70708;SHT30;58277;47.316;18.908;2022-09-13T16:50:29;21.60;49.47
70708;SHT30;58277;47.316;18.908;2022-09-13T16:52:56;21.45;50.40
70708;SHT30;58277;47.316;18.908;2022-09-13T16:55:19;21.39;50.88
70708;SHT30;58277;47.316;18.908;2022-09-13T16:57:42;21.33;50.31
70708;SHT30;58277;47.316;18.908;2022-09-13T17:00:07;21.33;50.16
70708;SHT30;58277;47.316;18.908;2022-09-13T17:02:33;21.22;50.63
70708;SHT30;58277;47.316;18.908;2022-09-13T17:04:56;21.29;50.49
70708;SHT30;58277;47.316;18.908;2022-09-13T17:07:19;21.29;51.17
70708;SHT30;58277;47.316;18.908;2022-09-13T17:09:42;21.16;52.07
70708;SHT30;58277;47.316;18.908;2022-09-13T17:12:11;21.11;51.67
70708;SHT30;58277;47.316;18.908;2022-09-13T17:14:33;21.06;51.73
70708;SHT30;58277;47.316;18.908;2022-09-13T17:16:56;21.12;51.25
70708;SHT30;58277;47.316;18.908;2022-09-13T17:19:25;21.05;51.25
70708;SHT30;58277;47.316;18.908;2022-09-13T17:21:49;20.87;51.94
70708;SHT30;58277;47.316;18.908;2022-09-13T17:24:12;20.85;52.22
70708;SHT30;58277;47.316;18.908;2022-09-13T17:26:35;20.78;52.86
70708;SHT30;58277;47.316;18.908;2022-09-13T17:28:59;20.68;53.02
70708;SHT30;58277;47.316;18.908;2022-09-13T17:31:22;20.53;53.69
70708;SHT30;58277;47.316;18.908;2022-09-13T17:33:45;20.47;53.70
70708;SHT30;58277;47.316;18.908;2022-09-13T17:36:10;20.32;54.37
70708;SHT30;58277;47.316;18.908;2022-09-13T17:38:37;20.23;54.79
70708;SHT30;58277;47.316;18.908;2022-09-13T17:41:04;20.13;55.48
70708;SHT30;58277;47.316;18.908;2022-09-13T17:43:27;20.06;55.47
70708;SHT30;58277;47.316;18.908;2022-09-13T17:45:50;20.00;55.34
70708;SHT30;58277;47.316;18.908;2022-09-13T17:48:14;19.88;55.71
70708;SHT30;58277;47.316;18.908;2022-09-13T17:50:40;19.77;56.01
70708;SHT30;58277;47.316;18.908;2022-09-13T17:53:03;19.71;56.18
70708;SHT30;58277;47.316;18.908;2022-09-13T17:55:26;19.61;56.93
70708;SHT30;58277;47.316;18.908;2022-09-13T17:57:48;19.54;57.28
70708;SHT30;58277;47.316;18.908;2022-09-13T18:00:11;19.46;58.04
70708;SHT30;58277;47.316;18.908;2022-09-13T18:02:34;19.41;60.05
70708;SHT30;58277;47.316;18.908;2022-09-13T18:04:57;19.43;60.17
70708;SHT30;58277;47.316;18.908;2022-09-13T18:07:26;19.38;60.26
70708;SHT30;58277;47.316;18.908;2022-09-13T18:09:49;19.38;59.32
70708;SHT30;58277;47.316;18.908;2022-09-13T18:12:12;19.46;58.28
70708;SHT30;58277;47.316;18.908;2022-09-13T18:14:35;19.37;58.42
70708;SHT30;58277;47.316;18.908;2022-09-13T18:16:57;19.34;58.53
70708;SHT30;58277;47.316;18.908;2022-09-13T18:19:21;19.43;58.88
70708;SHT30;58277;47.316;18.908;2022-09-13T18:22:06;19.37;60.14
70708;SHT30;58277;47.316;18.908;2022-09-13T18:24:29;19.41;60.56
70708;SHT30;58277;47.316;18.908;2022-09-13T18:26:51;19.38;60.41
70708;SHT30;58277;47.316;18.908;2022-09-13T18:29:14;19.33;60.38
70708;SHT30;58277;47.316;18.908;2022-09-13T18:31:41;19.28;60.01
70708;SHT30;58277;47.316;18.908;2022-09-13T18:34:13;19.30;59.31
70708;SHT30;58277;47.316;18.908;2022-09-13T18:36:36;19.24;60.23